createdAt,value
2022-12-17T00:01:22.217Z,25.90
2022-12-17T00:04:09.594Z,31.30
2022-12-17T00:07:02.332Z,30.30
2022-12-17T00:09:50.473Z,29.30
2022-12-17T00:12:38.920Z,29.10
2022-12-17T00:15:26.752Z,28.70
2022-12-17T00:18:22.550Z,27.60
2022-12-17T00:21:14.373Z,27.50
2022-12-17T00:24:02.232Z,26.30
2022-12-17T00:26:59.006Z,27.70
2022-12-17T00:29:46.939Z,26.80
2022-12-17T00:32:34.421Z,26.70
2022-12-17T00:35:22.532Z,26.60
2022-12-17T00:38:10.430Z,26.10
2022-12-17T00:40:59.221Z,26.30
2022-12-17T00:43:47.883Z,25.60
2022-12-17T00:46:35.155Z,26.40
2022-12-17T00:49:22.971Z,27.10
2022-12-17T00:52:11.372Z,28.00
2022-12-17T00:54:58.741Z,28.20
2022-12-17T00:57:46.042Z,27.60
2022-12-17T01:00:35.114Z,31.50
2022-12-17T01:03:30.993Z,30.70
2022-12-17T01:06:22.692Z,28.80
2022-12-17T01:09:10.053Z,28.90
2022-12-17T01:11:58.010Z,29.70
2022-12-17T01:14:45.886Z,28.10
2022-12-17T01:17:33.393Z,29.30
2022-12-17T01:20:20.861Z,28.00
2022-12-17T01:23:08.953Z,28.80
2022-12-17T01:25:56.393Z,28.00
2022-12-17T01:28:45.282Z,28.60
2022-12-17T01:31:35.332Z,26.30
2022-12-17T01:37:13.755Z,26.50
2022-12-17T01:40:01.347Z,27.10
2022-12-17T01:45:56.882Z,25.20
2022-12-17T01:49:13.371Z,26.70
2022-12-17T01:52:01.430Z,24.80
2022-12-17T01:54:49.073Z,29.00
2022-12-17T01:57:36.296Z,29.40
2022-12-17T02:00:29.270Z,26.30
2022-12-17T02:03:18.309Z,26.80
2022-12-17T02:07:01.555Z,26.40
2022-12-17T02:10:04.420Z,26.50
2022-12-17T02:13:06.685Z,27.20
2022-12-17T02:16:13.775Z,25.50
2022-12-17T02:19:28.152Z,24.60
2022-12-17T02:22:23.516Z,25.80
2022-12-17T02:25:20.123Z,24.40
2022-12-17T02:28:07.970Z,25.40
2022-12-17T02:30:56.911Z,25.50
2022-12-17T02:33:45.355Z,24.00
2022-12-17T02:36:33.656Z,24.70
2022-12-17T02:39:21.475Z,23.60
2022-12-17T02:42:16.054Z,22.90
2022-12-17T02:45:05.143Z,24.30
2022-12-17T02:47:52.992Z,24.40
2022-12-17T02:50:43.211Z,25.40
2022-12-17T02:56:19.263Z,28.40
2022-12-17T02:59:06.552Z,25.20
2022-12-17T03:01:54.961Z,26.90
2022-12-17T03:04:43.902Z,25.40
2022-12-17T03:07:31.806Z,26.00
2022-12-17T03:10:18.920Z,24.80
2022-12-17T03:13:03.014Z,24.30
2022-12-17T03:15:51.926Z,24.20
2022-12-17T03:18:39.833Z,23.20
2022-12-17T03:21:27.201Z,23.90
2022-12-17T03:24:14.893Z,22.00
2022-12-17T03:27:04.223Z,17.20
2022-12-17T03:29:51.443Z,23.20
2022-12-17T03:32:39.033Z,23.60
2022-12-17T03:35:38.500Z,22.90
2022-12-17T03:38:31.743Z,22.80
2022-12-17T03:41:19.010Z,23.30
2022-12-17T03:44:06.282Z,26.10
2022-12-17T03:46:53.503Z,23.70
2022-12-17T03:49:41.539Z,22.90
2022-12-17T03:52:28.820Z,21.80
2022-12-17T03:55:16.182Z,22.70
2022-12-17T03:58:03.483Z,23.50
2022-12-17T04:00:54.959Z,22.40
2022-12-17T04:03:42.279Z,22.90
2022-12-17T04:06:29.741Z,22.00
2022-12-17T04:09:17.193Z,21.70
2022-12-17T04:12:04.650Z,22.70
2022-12-17T04:14:54.390Z,22.30
2022-12-17T04:17:41.673Z,22.10
2022-12-17T04:20:29.647Z,21.50
2022-12-17T04:23:17.581Z,21.70
2022-12-17T04:26:04.786Z,21.70
2022-12-17T04:28:53.546Z,23.80
2022-12-17T04:31:41.184Z,22.60
2022-12-17T04:34:28.323Z,20.70
2022-12-17T04:37:15.703Z,21.90
2022-12-17T04:40:03.099Z,21.40
2022-12-17T04:42:50.463Z,21.00
2022-12-17T04:45:38.034Z,19.60
2022-12-17T04:48:26.866Z,19.30
2022-12-17T04:51:14.310Z,19.50
2022-12-17T04:54:01.892Z,21.10
2022-12-17T04:56:49.144Z,19.30
2022-12-17T04:59:36.471Z,20.20
2022-12-17T05:02:23.987Z,18.70
2022-12-17T05:05:19.949Z,18.90
2022-12-17T05:08:07.186Z,19.90
2022-12-17T05:10:55.959Z,20.40
2022-12-17T05:13:45.983Z,23.90
2022-12-17T05:16:33.714Z,21.40
2022-12-17T05:19:21.130Z,20.10
2022-12-17T05:22:08.650Z,20.80
2022-12-17T05:24:59.534Z,21.60
2022-12-17T05:27:47.201Z,21.10
2022-12-17T05:42:29.816Z,19.30
2022-12-17T05:45:17.420Z,20.00
2022-12-17T05:48:05.073Z,20.70
2022-12-17T05:50:52.822Z,20.30
2022-12-17T05:53:45.939Z,20.70
2022-12-17T05:56:33.703Z,21.30
2022-12-17T05:59:21.326Z,24.10
2022-12-17T06:02:08.850Z,23.20
2022-12-17T06:05:01.810Z,20.10
2022-12-17T06:07:49.670Z,19.90
2022-12-17T06:10:37.259Z,21.10
2022-12-17T06:13:25.223Z,22.40
2022-12-17T06:16:12.394Z,22.00
2022-12-17T06:19:00.184Z,21.20
2022-12-17T06:21:48.495Z,20.80
2022-12-17T06:24:35.798Z,19.30
2022-12-17T06:27:22.992Z,21.30
2022-12-17T06:30:15.543Z,22.40
2022-12-17T06:33:05.832Z,21.10
2022-12-17T06:35:53.232Z,22.30
2022-12-17T06:38:40.702Z,20.60
2022-12-17T06:41:27.952Z,21.90
2022-12-17T06:44:16.342Z,22.10
2022-12-17T06:47:03.602Z,21.10
2022-12-17T06:49:50.803Z,21.00
2022-12-17T06:52:38.232Z,22.00
2022-12-17T06:55:26.570Z,25.40
2022-12-17T06:58:18.759Z,22.60
2022-12-17T07:01:06.955Z,21.90
2022-12-17T07:07:33.050Z,20.30
2022-12-17T07:10:23.341Z,22.60
2022-12-17T07:13:10.661Z,24.00
2022-12-17T07:15:58.208Z,22.00
2022-12-17T07:18:45.696Z,22.60
2022-12-17T07:21:32.910Z,22.30
2022-12-17T07:24:22.524Z,22.00
2022-12-17T07:27:09.760Z,21.20
2022-12-17T07:29:57.698Z,22.10
2022-12-17T07:32:44.924Z,23.40
2022-12-17T07:35:32.689Z,24.00
2022-12-17T07:38:21.559Z,22.50
2022-12-17T07:41:09.464Z,23.70
2022-12-17T07:43:57.000Z,23.60
2022-12-17T07:46:47.976Z,25.40
2022-12-17T07:49:35.504Z,23.40
2022-12-17T07:52:22.811Z,21.90
2022-12-17T07:55:13.188Z,22.80
2022-12-17T07:58:05.646Z,23.90
2022-12-17T08:00:53.017Z,21.80
2022-12-17T08:03:40.910Z,23.10
2022-12-17T08:06:28.892Z,23.50
2022-12-17T08:09:16.550Z,22.80
2022-12-17T08:12:03.851Z,21.40
2022-12-17T08:14:51.518Z,21.70
2022-12-17T08:17:39.745Z,20.70
2022-12-17T08:21:31.852Z,21.80
2022-12-17T08:24:18.632Z,23.90
2022-12-17T08:27:06.151Z,22.60
2022-12-17T08:29:53.505Z,21.00
2022-12-17T08:32:41.200Z,20.10
2022-12-17T08:35:29.029Z,19.40
2022-12-17T08:38:24.591Z,19.60
2022-12-17T08:41:14.960Z,22.10
2022-12-17T08:44:04.041Z,17.90
2022-12-17T08:46:51.924Z,18.30
2022-12-17T08:49:39.418Z,17.30
2022-12-17T08:52:27.173Z,16.40
2022-12-17T08:55:14.600Z,21.10
2022-12-17T09:01:02.294Z,18.40
2022-12-17T09:03:49.818Z,17.70
2022-12-17T09:06:39.299Z,18.30
2022-12-17T09:09:27.380Z,18.90
2022-12-17T09:13:21.237Z,17.50
2022-12-17T09:16:15.692Z,16.60
2022-12-17T09:19:03.079Z,17.80
2022-12-17T09:22:56.058Z,16.40
2022-12-17T09:25:43.201Z,16.00
2022-12-17T09:28:30.674Z,15.20
2022-12-17T09:31:19.517Z,19.00
2022-12-17T09:34:07.039Z,18.00
2022-12-17T09:36:57.912Z,16.40
2022-12-17T09:39:45.452Z,16.90
2022-12-17T09:43:00.351Z,15.60
2022-12-17T09:45:54.665Z,15.50
2022-12-17T09:49:00.589Z,14.10
2022-12-17T09:51:48.820Z,16.30
2022-12-17T09:54:44.222Z,14.10
2022-12-17T09:57:39.145Z,29.20
2022-12-17T10:00:45.542Z,16.80
2022-12-17T10:03:42.700Z,15.90
2022-12-17T10:07:44.319Z,14.60
2022-12-17T10:10:46.056Z,15.80
2022-12-17T10:13:38.786Z,15.50
2022-12-17T10:16:47.552Z,17.80
2022-12-17T10:19:46.105Z,18.50
2022-12-17T10:22:50.419Z,17.20
2022-12-17T10:25:42.311Z,17.00
2022-12-17T10:28:32.879Z,14.60
2022-12-17T10:31:24.130Z,15.30
2022-12-17T10:34:15.868Z,14.80
2022-12-17T10:37:07.066Z,14.30
2022-12-17T10:39:55.032Z,13.60
2022-12-17T10:42:46.900Z,15.40
2022-12-17T10:45:42.250Z,14.90
2022-12-17T10:48:45.711Z,16.80
2022-12-17T10:51:51.039Z,19.10
2022-12-17T10:54:50.548Z,18.00
2022-12-17T10:57:55.127Z,16.60
2022-12-17T11:01:23.667Z,15.90
2022-12-17T11:04:13.760Z,16.50
2022-12-17T11:10:08.475Z,14.90
2022-12-17T11:13:20.845Z,13.50
2022-12-17T11:16:11.722Z,14.30
2022-12-17T11:19:03.703Z,14.80
2022-12-17T11:21:58.307Z,15.70
2022-12-17T11:24:54.363Z,16.50
2022-12-17T11:27:54.590Z,15.00
2022-12-17T11:30:56.597Z,13.10
2022-12-17T11:33:53.468Z,16.00
2022-12-17T11:36:46.176Z,14.20
2022-12-17T11:40:02.996Z,16.20
2022-12-17T11:42:56.692Z,15.00
2022-12-17T11:50:20.873Z,14.30
2022-12-17T11:53:38.130Z,17.20
2022-12-17T11:56:35.431Z,15.00
2022-12-17T11:59:51.143Z,13.80
2022-12-17T12:03:18.427Z,12.80
2022-12-17T12:06:16.651Z,14.00
2022-12-17T12:09:31.754Z,14.30
2022-12-17T12:12:25.273Z,14.50
2022-12-17T12:15:24.936Z,14.20
2022-12-17T12:18:18.362Z,14.00
2022-12-17T12:21:31.072Z,15.00
2022-12-17T12:24:39.441Z,15.10
2022-12-17T12:27:48.881Z,14.10
2022-12-17T12:30:42.417Z,17.10
2022-12-17T12:33:54.702Z,14.50
2022-12-17T12:36:45.574Z,14.30
2022-12-17T12:39:40.576Z,14.00
2022-12-17T12:42:46.572Z,14.10
2022-12-17T12:45:55.422Z,13.10
2022-12-17T12:49:01.331Z,13.70
2022-12-17T12:51:52.791Z,13.40
2022-12-17T12:54:42.985Z,14.20
2022-12-17T12:57:53.928Z,14.00
2022-12-17T13:00:43.250Z,14.10
2022-12-17T13:07:44.936Z,13.70
2022-12-17T13:10:31.755Z,12.70
2022-12-17T13:13:18.706Z,13.50
2022-12-17T13:15:59.390Z,13.30
2022-12-17T13:18:41.357Z,12.70
2022-12-17T13:21:17.971Z,13.00
2022-12-17T13:23:48.379Z,12.40
2022-12-17T13:26:31.965Z,13.70
2022-12-17T13:29:13.564Z,13.00
2022-12-17T13:31:54.459Z,12.70
2022-12-17T13:34:55.503Z,16.10
2022-12-17T13:38:59.830Z,16.30
2022-12-17T13:41:33.816Z,14.50
2022-12-17T13:44:20.057Z,16.00
2022-12-17T13:46:52.632Z,15.50
2022-12-17T13:49:31.933Z,13.90
2022-12-17T13:52:19.756Z,15.00
2022-12-17T13:54:50.312Z,14.60
2022-12-17T13:57:23.525Z,14.00
2022-12-17T13:59:59.195Z,13.90
2022-12-17T14:02:42.920Z,13.00
2022-12-17T14:05:33.585Z,12.30
2022-12-17T14:08:09.426Z,13.90
2022-12-17T14:10:40.064Z,14.60
2022-12-17T14:13:16.478Z,14.50
2022-12-17T14:15:53.389Z,12.90
2022-12-17T14:18:24.102Z,13.30
2022-12-17T14:20:57.853Z,13.90
2022-12-17T14:23:33.510Z,12.80
2022-12-17T14:26:04.074Z,13.30
2022-12-17T14:28:50.181Z,13.70
2022-12-17T14:31:27.638Z,10.60
2022-12-17T14:34:11.685Z,14.50
2022-12-17T14:36:48.697Z,13.50
2022-12-17T14:39:25.129Z,13.70
2022-12-17T14:42:15.567Z,12.80
2022-12-17T14:45:08.311Z,12.80
2022-12-17T14:47:39.773Z,11.00
2022-12-17T14:50:19.457Z,11.60
2022-12-17T14:52:54.955Z,11.50
2022-12-17T14:55:40.607Z,10.30
2022-12-17T14:58:15.185Z,11.10
2022-12-17T15:00:59.623Z,9.70
2022-12-17T15:03:33.881Z,10.80
2022-12-17T15:06:07.001Z,10.10
2022-12-17T15:08:51.345Z,10.30
2022-12-17T15:11:23.393Z,11.30
2022-12-17T15:13:56.662Z,11.40
2022-12-17T15:16:27.482Z,13.90
2022-12-17T15:18:57.937Z,13.50
2022-12-17T15:21:29.155Z,13.10
2022-12-17T15:23:59.649Z,13.30
2022-12-17T15:26:30.199Z,13.40
2022-12-17T15:29:00.673Z,14.00
2022-12-17T15:31:35.455Z,14.40
2022-12-17T15:34:07.002Z,12.80
2022-12-17T15:36:37.920Z,14.60
2022-12-17T15:39:09.933Z,15.30
2022-12-17T15:42:01.014Z,13.80
2022-12-17T15:45:04.022Z,13.90
2022-12-17T15:47:34.650Z,14.10
2022-12-17T15:50:07.477Z,14.20
2022-12-17T15:52:38.288Z,15.60
2022-12-17T15:55:09.323Z,14.70
2022-12-17T15:57:39.890Z,13.30
2022-12-17T16:00:11.352Z,12.10
2022-12-17T16:02:43.380Z,12.30
2022-12-17T16:05:21.160Z,12.90
2022-12-17T16:07:53.330Z,11.20
2022-12-17T16:10:23.704Z,11.50
2022-12-17T16:12:55.112Z,12.10
2022-12-17T16:15:25.712Z,11.30
2022-12-17T16:17:56.650Z,11.20
2022-12-17T16:20:28.514Z,11.20
2022-12-17T16:22:58.924Z,11.50
2022-12-17T16:25:29.571Z,10.90
2022-12-17T16:28:01.706Z,10.90
2022-12-17T16:30:32.927Z,9.30
2022-12-17T16:33:04.419Z,8.20
2022-12-17T16:35:35.908Z,8.30
2022-12-17T16:38:07.575Z,9.00
2022-12-17T16:40:41.577Z,8.90
2022-12-17T16:43:12.702Z,10.00
2022-12-17T16:45:50.927Z,9.00
2022-12-17T16:48:25.181Z,9.00
2022-12-17T16:50:56.928Z,9.60
2022-12-17T16:53:28.120Z,9.20
2022-12-17T16:55:58.572Z,10.70
2022-12-17T16:58:28.883Z,10.70
2022-12-17T17:00:59.613Z,12.80
2022-12-17T17:03:30.257Z,13.10
2022-12-17T17:06:05.263Z,14.20
2022-12-17T17:08:39.550Z,11.60
2022-12-17T17:11:15.211Z,12.20
2022-12-17T17:13:46.001Z,13.50
2022-12-17T17:16:16.838Z,13.60
2022-12-17T17:18:47.342Z,14.20
2022-12-17T17:21:20.793Z,13.30
2022-12-17T17:23:57.358Z,14.40
2022-12-17T17:26:30.603Z,14.80
2022-12-17T17:29:02.319Z,13.60
2022-12-17T17:32:08.586Z,16.00
2022-12-17T17:34:23.753Z,16.20
2022-12-17T17:36:54.253Z,14.40
2022-12-17T17:39:25.330Z,14.30
2022-12-17T17:41:56.152Z,14.50
2022-12-17T17:44:26.781Z,14.40
2022-12-17T17:46:57.277Z,14.70
2022-12-17T17:49:29.665Z,11.80
2022-12-17T17:52:11.563Z,14.30
2022-12-17T17:54:42.782Z,12.60
2022-12-17T17:57:14.005Z,13.90
2022-12-17T17:59:44.674Z,14.40
2022-12-17T18:02:15.666Z,14.00
2022-12-17T18:04:47.562Z,16.10
2022-12-17T18:17:12.010Z,15.10
2022-12-17T18:19:44.088Z,15.30
2022-12-17T18:22:15.089Z,15.50
2022-12-17T18:24:47.271Z,15.80
2022-12-17T18:27:23.602Z,15.60
2022-12-17T18:30:05.251Z,17.20
2022-12-17T18:33:03.463Z,18.70
2022-12-17T18:35:31.782Z,18.80
2022-12-17T18:38:07.905Z,18.20
2022-12-17T18:40:38.749Z,17.70
2022-12-17T18:43:26.718Z,17.40
2022-12-17T18:45:57.717Z,17.50
2022-12-17T18:48:31.324Z,17.70
2022-12-17T18:51:08.039Z,19.00
2022-12-17T18:53:38.563Z,18.10
2022-12-17T18:56:11.967Z,17.90
2022-12-17T18:58:48.656Z,19.50
2022-12-17T19:01:27.583Z,18.40
2022-12-17T19:03:59.904Z,20.00
2022-12-17T19:06:30.722Z,22.00
2022-12-17T19:09:06.061Z,19.70
2022-12-17T19:11:43.438Z,18.60
2022-12-17T19:14:15.634Z,17.90
2022-12-17T19:16:47.765Z,17.10
2022-12-17T19:19:18.846Z,17.50
2022-12-17T19:21:52.664Z,17.90
2022-12-17T19:24:39.267Z,18.20
2022-12-17T19:27:10.683Z,17.00
2022-12-17T19:29:46.215Z,17.70
2022-12-17T19:32:20.044Z,18.20
2022-12-17T19:34:51.123Z,16.80
2022-12-17T19:37:29.492Z,20.80
2022-12-17T19:40:03.080Z,19.10
2022-12-17T19:46:42.826Z,18.70
2022-12-17T19:49:18.202Z,18.40
2022-12-17T19:51:49.008Z,20.00
2022-12-17T19:54:21.934Z,18.70
2022-12-17T19:56:57.655Z,19.80
2022-12-17T19:59:34.775Z,19.40
2022-12-17T20:02:09.619Z,20.90
2022-12-17T20:04:40.289Z,23.00
2022-12-17T20:07:11.197Z,25.00
2022-12-17T20:09:44.498Z,21.60
2022-12-17T20:12:17.315Z,21.40
2022-12-17T20:14:48.733Z,22.00
2022-12-17T20:17:22.763Z,22.60
2022-12-17T20:19:57.767Z,22.20
2022-12-17T20:22:29.621Z,22.00
2022-12-17T20:25:05.654Z,23.60
2022-12-17T20:27:36.761Z,25.20
2022-12-17T20:30:09.250Z,24.10
2022-12-17T20:32:40.706Z,25.40
2022-12-17T20:35:14.172Z,27.70
2022-12-17T20:37:47.185Z,26.30
2022-12-17T20:40:17.581Z,25.20
2022-12-17T20:42:48.554Z,26.00
2022-12-17T20:45:20.593Z,26.60
2022-12-17T20:48:01.276Z,26.00
2022-12-17T20:50:31.905Z,26.00
2022-12-17T20:53:02.756Z,28.80
2022-12-17T20:55:33.761Z,25.90
2022-12-17T20:58:04.883Z,26.40
2022-12-17T21:05:09.026Z,31.20
2022-12-17T21:07:40.154Z,28.90
2022-12-17T21:10:11.775Z,23.60
2022-12-17T21:13:00.049Z,25.80
2022-12-17T21:15:34.153Z,26.30
2022-12-17T21:18:06.303Z,24.10
2022-12-17T21:20:37.861Z,25.50
2022-12-17T21:23:08.792Z,25.60
2022-12-17T21:25:39.402Z,24.80
2022-12-17T21:28:11.517Z,25.60
2022-12-17T21:35:26.864Z,27.50
2022-12-17T21:37:57.792Z,28.10
2022-12-17T21:40:28.375Z,27.90
2022-12-17T21:43:04.735Z,28.70
2022-12-17T21:45:40.390Z,28.20
2022-12-17T21:48:15.388Z,25.20
2022-12-17T21:50:47.523Z,24.80
2022-12-17T21:58:39.519Z,27.80
2022-12-17T22:01:41.984Z,25.20
2022-12-17T22:13:47.263Z,27.40
2022-12-17T22:14:20.866Z,25.00
2022-12-17T22:16:49.942Z,26.90
2022-12-17T22:19:46.939Z,27.80
2022-12-17T22:26:35.251Z,25.50
2022-12-17T22:29:10.402Z,27.00
2022-12-17T22:32:12.763Z,26.80
2022-12-17T22:39:10.738Z,27.90
2022-12-17T22:44:34.917Z,25.60
2022-12-17T22:44:54.403Z,24.80
2022-12-17T22:47:35.503Z,25.80
2022-12-17T22:50:21.880Z,25.40
2022-12-17T22:53:00.202Z,26.90
2022-12-17T22:55:31.750Z,26.60
2022-12-17T22:58:05.769Z,24.50
2022-12-17T23:00:38.205Z,26.50
2022-12-17T23:03:12.802Z,26.20
2022-12-17T23:05:48.993Z,26.90
2022-12-17T23:08:55.149Z,28.40
2022-12-17T23:11:37.768Z,27.70
2022-12-17T23:14:10.208Z,27.90
2022-12-17T23:16:43.830Z,28.10
2022-12-17T23:19:16.459Z,27.80
2022-12-17T23:21:47.531Z,27.00
2022-12-17T23:24:19.874Z,26.80
2022-12-17T23:26:53.481Z,26.30
2022-12-17T23:29:24.732Z,26.20
2022-12-17T23:31:57.567Z,25.30
2022-12-17T23:34:28.431Z,24.40
2022-12-17T23:37:03.698Z,25.20
2022-12-17T23:39:34.417Z,23.20
2022-12-17T23:42:06.227Z,24.50
2022-12-17T23:44:36.721Z,24.30
2022-12-17T23:47:07.201Z,25.30
2022-12-17T23:49:37.830Z,25.80
2022-12-17T23:52:08.151Z,24.00
2022-12-17T23:56:00.225Z,26.60
2022-12-17T23:58:36.956Z,28.20
